createdAt,value
2022-09-28T00:03:13.991Z,1.42
2022-09-28T00:06:56.293Z,1.40
2022-09-28T00:10:38.325Z,1.88
2022-09-28T00:14:21.364Z,1.83
2022-09-28T00:18:03.474Z,1.10
2022-09-28T00:21:46.207Z,1.25
2022-09-28T00:25:28.369Z,1.10
2022-09-28T00:29:28.423Z,2.13
2022-09-28T00:33:10.498Z,1.30
2022-09-28T00:36:52.778Z,1.10
2022-09-28T00:40:35.014Z,1.60
2022-09-28T00:44:25.934Z,2.03
2022-09-28T00:48:08.297Z,1.60
2022-09-28T00:51:50.566Z,1.05
2022-09-28T00:55:51.958Z,1.48
2022-09-28T00:59:34.673Z,1.20
2022-09-28T01:03:17.248Z,1.40
2022-09-28T01:07:00.483Z,1.15
2022-09-28T01:10:44.100Z,1.17
2022-09-28T01:14:26.351Z,1.10
2022-09-28T01:18:25.580Z,1.30
2022-09-28T01:22:43.099Z,1.48
2022-09-28T01:26:57.340Z,1.85
2022-09-28T01:31:05.769Z,1.75
2022-09-28T01:34:56.280Z,1.55
2022-09-28T01:38:47.386Z,1.20
2022-09-28T01:42:32.858Z,1.52
2022-09-28T01:46:21.690Z,1.65
2022-09-28T01:50:24.850Z,1.30
2022-09-28T01:54:16.789Z,1.30
2022-09-28T01:58:14.831Z,1.75
2022-09-28T02:02:05.545Z,1.55
2022-09-28T02:05:56.712Z,1.77
2022-09-28T02:09:43.845Z,1.33
2022-09-28T02:13:55.096Z,1.35
2022-09-28T02:17:37.597Z,1.15
2022-09-28T02:21:35.312Z,1.27
2022-09-28T02:25:23.288Z,1.23
2022-09-28T02:29:05.699Z,1.40
2022-09-28T02:32:50.146Z,1.30
2022-09-28T02:36:33.588Z,1.40
2022-09-28T02:40:16.813Z,1.90
2022-09-28T02:44:17.521Z,1.13
2022-09-28T02:48:05.718Z,2.28
2022-09-28T02:52:16.019Z,1.33
2022-09-28T02:56:17.378Z,1.10
2022-09-28T03:00:15.566Z,1.20
2022-09-28T03:04:25.661Z,1.70
2022-09-28T03:08:26.991Z,1.02
2022-09-28T03:12:12.580Z,1.70
2022-09-28T03:16:16.677Z,1.27
2022-09-28T03:19:59.660Z,1.70
2022-09-28T03:23:42.486Z,1.48
2022-09-28T03:27:24.596Z,1.63
2022-09-28T03:31:07.232Z,1.48
2022-09-28T03:34:49.383Z,1.42
2022-09-28T03:38:31.455Z,1.30
2022-09-28T04:12:32.269Z,1.00
2022-09-28T04:21:25.376Z,1.10
2022-09-28T04:40:36.670Z,1.00
2022-09-28T04:58:31.642Z,1.20
2022-09-28T05:02:15.513Z,1.65
2022-09-28T05:05:57.982Z,1.30
2022-09-28T05:09:40.303Z,1.20
2022-09-28T05:13:22.337Z,1.17
2022-09-28T05:17:04.619Z,1.27
2022-09-28T05:20:46.647Z,1.60
2022-09-28T05:24:28.734Z,1.30
2022-09-28T05:28:11.324Z,1.90
2022-09-28T05:31:53.600Z,1.55
2022-09-28T05:35:36.462Z,1.45
2022-09-28T05:39:18.851Z,1.48
2022-09-28T05:43:02.716Z,1.75
2022-09-28T05:46:44.920Z,1.70
2022-09-28T05:50:27.167Z,1.85
2022-09-28T05:54:09.413Z,1.50
2022-09-28T05:57:51.614Z,1.30
2022-09-28T06:01:34.054Z,1.70
2022-09-28T06:05:16.217Z,1.00
2022-09-28T06:08:58.509Z,1.40
2022-09-28T06:12:41.482Z,1.40
2022-09-28T06:16:24.411Z,1.10
2022-09-28T06:20:07.368Z,1.70
2022-09-28T06:23:49.653Z,1.52
2022-09-28T06:27:32.299Z,1.35
2022-09-28T06:31:14.502Z,1.52
2022-09-28T06:34:57.273Z,1.60
2022-09-28T06:38:39.436Z,1.70
2022-09-28T06:42:22.074Z,1.52
2022-09-28T06:46:06.328Z,2.05
2022-09-28T06:49:55.520Z,1.70
2022-09-28T06:53:37.849Z,1.60
2022-09-28T06:57:19.832Z,1.90
2022-09-28T07:01:02.711Z,1.55
2022-09-28T07:04:46.062Z,1.58
2022-09-28T07:08:29.529Z,1.27
2022-09-28T07:12:55.501Z,2.13
2022-09-28T07:17:10.804Z,1.92
2022-09-28T07:20:54.637Z,1.73
2022-09-28T07:24:36.993Z,1.58
2022-09-28T07:28:19.720Z,2.40
2022-09-28T07:32:03.797Z,1.75
2022-09-28T07:35:54.177Z,1.40
2022-09-28T07:43:40.088Z,1.05
2022-09-28T07:47:30.808Z,1.00
2022-09-28T07:51:23.785Z,1.08
2022-09-28T07:55:07.374Z,0.85
2022-09-28T07:58:50.166Z,1.20
2022-09-28T08:02:34.176Z,1.00
2022-09-28T08:06:17.406Z,1.42
2022-09-28T08:09:59.465Z,1.10
2022-09-28T08:13:41.908Z,1.45
2022-09-28T08:17:24.274Z,1.10
2022-09-28T08:21:25.085Z,0.80
2022-09-28T08:25:08.050Z,1.00
2022-09-28T08:28:50.419Z,0.70
2022-09-28T08:32:33.089Z,1.33
2022-09-28T08:36:15.422Z,0.98
2022-09-28T08:39:57.721Z,1.13
2022-09-28T08:44:16.038Z,1.30
2022-09-28T08:48:32.921Z,1.10
2022-09-28T08:52:27.592Z,1.05
2022-09-28T08:56:45.021Z,1.38
2022-09-28T09:00:39.161Z,1.38
2022-09-28T09:04:21.703Z,1.13
2022-09-28T09:08:38.378Z,1.10
2022-09-28T09:13:14.311Z,1.10
2022-09-28T09:17:20.092Z,1.17
2022-09-28T09:21:15.806Z,1.15
2022-09-28T09:25:07.024Z,1.30
2022-09-28T09:29:23.231Z,1.15
2022-09-28T09:33:11.366Z,1.20
2022-09-28T09:37:24.567Z,1.20
2022-09-28T09:41:31.337Z,1.10
2022-09-28T09:45:41.415Z,1.60
2022-09-28T09:49:36.693Z,1.40
2022-09-28T09:53:27.390Z,1.20
2022-09-28T09:57:34.725Z,0.85
2022-09-28T10:01:21.472Z,0.90
2022-09-28T10:05:13.050Z,0.70
2022-09-28T10:09:24.039Z,0.70
2022-09-28T10:13:06.476Z,0.80
2022-09-28T10:16:51.034Z,0.95
2022-09-28T10:20:37.637Z,0.60
2022-09-28T10:24:32.432Z,0.70
2022-09-28T10:28:22.936Z,0.57
2022-09-28T10:32:22.261Z,0.70
2022-09-28T10:36:08.526Z,0.30
2022-09-28T10:40:01.363Z,0.50
2022-09-28T10:44:17.760Z,0.45
2022-09-28T10:48:04.251Z,0.52
2022-09-28T10:51:55.059Z,0.55
2022-09-28T10:55:37.387Z,0.68
2022-09-28T10:59:31.375Z,0.80
2022-09-28T11:03:25.459Z,0.82
2022-09-28T11:07:19.810Z,0.82
2022-09-28T11:11:06.406Z,0.50
2022-09-28T11:14:55.725Z,0.65
2022-09-28T11:18:38.920Z,0.40
2022-09-28T11:22:21.265Z,0.80
2022-09-28T11:26:18.416Z,0.88
2022-09-28T11:30:01.263Z,0.50
2022-09-28T11:33:50.823Z,0.45
2022-09-28T11:37:55.772Z,0.50
2022-09-28T11:41:53.568Z,0.45
2022-09-28T11:45:53.577Z,0.60
2022-09-28T11:49:46.872Z,0.85
2022-09-28T11:53:41.725Z,0.60
2022-09-28T11:57:37.042Z,0.60
2022-09-28T12:01:36.382Z,0.43
2022-09-28T12:05:29.941Z,0.40
2022-09-28T12:09:22.734Z,0.52
2022-09-28T12:13:12.238Z,0.50
2022-09-28T12:17:07.764Z,0.50
2022-09-28T12:21:12.380Z,0.50
2022-09-28T12:24:57.769Z,0.50
2022-09-28T12:28:50.319Z,0.70
2022-09-28T12:32:51.443Z,0.75
2022-09-28T12:37:16.119Z,0.60
2022-09-28T12:41:07.570Z,0.60
2022-09-28T12:45:18.608Z,0.60
2022-09-28T12:49:51.451Z,0.60
2022-09-28T12:53:09.226Z,0.40
2022-09-28T12:57:13.213Z,0.40
2022-09-28T13:00:55.345Z,0.40
2022-09-28T13:05:17.411Z,0.60
2022-09-28T13:09:35.155Z,0.80
2022-09-28T13:13:56.733Z,0.63
2022-09-28T13:21:55.692Z,1.10
2022-09-28T13:25:43.904Z,1.10
2022-09-28T13:30:25.596Z,0.63
2022-09-28T13:34:22.488Z,0.50
2022-09-28T13:38:18.833Z,1.10
2022-09-28T13:42:02.686Z,0.95
2022-09-28T13:45:54.074Z,0.80
2022-09-28T13:49:42.674Z,0.98
2022-09-28T13:53:30.502Z,0.68
2022-09-28T13:57:31.316Z,0.70
2022-09-28T14:01:36.655Z,0.60
2022-09-28T14:05:39.844Z,0.63
2022-09-28T14:09:24.676Z,0.90
2022-09-28T14:13:09.250Z,0.85
2022-09-28T14:17:12.982Z,0.70
2022-09-28T14:21:23.169Z,0.50
2022-09-28T14:25:23.869Z,0.70
2022-09-28T14:29:40.547Z,0.77
2022-09-28T14:33:22.494Z,1.27
2022-09-28T14:37:37.966Z,0.90
2022-09-28T14:41:34.630Z,0.90
2022-09-28T14:45:36.918Z,0.70
2022-09-28T14:49:19.800Z,1.10
2022-09-28T14:53:13.796Z,0.80
2022-09-28T14:57:15.555Z,0.90
2022-09-28T15:01:05.450Z,0.95
2022-09-28T15:04:56.544Z,0.88
2022-09-28T15:08:40.085Z,0.80
2022-09-28T15:12:26.103Z,1.00
2022-09-28T15:16:12.518Z,0.90
2022-09-28T15:20:12.617Z,1.33
2022-09-28T15:23:54.983Z,2.07
2022-09-28T15:27:38.401Z,1.10
2022-09-28T15:31:26.531Z,1.70
2022-09-28T15:35:20.853Z,2.05
2022-09-28T15:39:29.843Z,2.30
2022-09-28T15:47:14.014Z,1.20
2022-09-28T15:51:12.404Z,1.10
2022-09-28T15:54:55.645Z,0.70
2022-09-28T15:58:39.141Z,0.70
2022-09-28T16:02:25.791Z,0.90
2022-09-28T16:06:09.959Z,0.60
2022-09-28T16:10:06.565Z,0.80
2022-09-28T16:14:09.126Z,0.60
2022-09-28T16:17:58.058Z,0.52
2022-09-28T16:21:48.010Z,1.52
2022-09-28T16:25:30.158Z,1.30
2022-09-28T16:29:39.121Z,1.05
2022-09-28T16:33:43.870Z,0.70
2022-09-28T16:37:32.894Z,1.08
2022-09-28T16:41:20.958Z,0.98
2022-09-28T16:45:05.521Z,1.00
2022-09-28T16:48:50.522Z,0.70
2022-09-28T16:52:54.808Z,1.02
2022-09-28T16:56:38.878Z,0.82
2022-09-28T17:00:26.059Z,1.15
2022-09-28T17:04:08.202Z,1.10
2022-09-28T17:08:03.149Z,0.85
2022-09-28T17:11:45.293Z,0.80
2022-09-28T17:15:27.450Z,0.80
2022-09-28T17:19:27.041Z,1.10
2022-09-28T17:23:09.234Z,0.70
2022-09-28T17:26:52.650Z,0.98
2022-09-28T17:30:34.741Z,1.30
2022-09-28T17:34:17.290Z,1.30
2022-09-28T17:37:59.528Z,1.00
2022-09-28T17:41:42.132Z,0.80
2022-09-28T17:45:50.847Z,1.02
2022-09-28T17:49:32.980Z,0.80
2022-09-28T17:53:15.362Z,0.82
2022-09-28T17:56:58.443Z,0.77
2022-09-28T18:00:41.143Z,0.82
2022-09-28T18:04:47.555Z,0.82
2022-09-28T18:08:25.525Z,0.90
2022-09-28T18:12:07.865Z,1.00
2022-09-28T18:15:53.756Z,0.88
2022-09-28T18:19:36.007Z,1.08
2022-09-28T18:23:19.107Z,1.55
2022-09-28T18:27:01.434Z,1.70
2022-09-28T18:30:45.371Z,1.25
2022-09-28T18:34:27.525Z,1.10
2022-09-28T18:38:09.633Z,1.13
2022-09-28T18:41:53.057Z,1.02
2022-09-28T18:45:36.257Z,1.23
2022-09-28T18:49:18.529Z,0.98
2022-09-28T18:53:13.993Z,1.23
2022-09-28T18:56:57.401Z,1.48
2022-09-28T19:00:40.635Z,1.25
2022-09-28T19:04:22.842Z,1.40
2022-09-28T19:08:04.911Z,1.10
2022-09-28T19:11:48.287Z,1.85
2022-09-28T19:15:30.463Z,2.05
2022-09-28T19:19:14.725Z,1.38
2022-09-28T19:22:57.291Z,1.10
2022-09-28T19:26:39.493Z,1.20
2022-09-28T19:30:21.490Z,2.50
2022-09-28T19:34:03.926Z,5.63
2022-09-28T19:37:46.829Z,4.07
2022-09-28T19:41:51.777Z,2.90
2022-09-28T19:45:36.025Z,2.88
2022-09-28T19:49:22.509Z,2.45
2022-09-28T19:53:06.820Z,2.15
2022-09-28T19:56:48.915Z,2.97
2022-09-28T20:00:31.026Z,3.08
2022-09-28T20:04:14.069Z,2.30
2022-09-28T20:07:56.197Z,2.72
2022-09-28T20:11:38.425Z,1.85
2022-09-28T20:15:23.918Z,2.58
2022-09-28T20:19:07.621Z,2.00
2022-09-28T20:22:49.937Z,2.38
2022-09-28T20:26:37.734Z,2.28
2022-09-28T20:30:23.551Z,1.98
2022-09-28T20:34:10.263Z,1.88
2022-09-28T20:37:52.974Z,2.03
2022-09-28T20:41:36.122Z,1.73
2022-09-28T20:45:19.901Z,1.98
2022-09-28T20:49:02.927Z,2.40
2022-09-28T20:52:45.521Z,2.28
2022-09-28T20:56:39.093Z,2.08
2022-09-28T21:00:21.517Z,2.00
2022-09-28T21:04:06.314Z,1.38
2022-09-28T21:07:48.420Z,1.58
2022-09-28T21:11:31.149Z,1.77
2022-09-28T21:15:57.342Z,1.60
2022-09-28T21:19:39.645Z,2.00
2022-09-28T21:23:24.912Z,1.35
2022-09-28T21:27:07.486Z,1.80
2022-09-28T21:30:52.401Z,3.05
2022-09-28T21:34:36.179Z,8.57
2022-09-28T21:38:18.417Z,2.53
2022-09-28T21:42:03.603Z,2.20
2022-09-28T21:45:53.706Z,1.98
2022-09-28T21:49:39.110Z,2.80
2022-09-28T21:53:22.587Z,2.08
2022-09-28T21:57:05.197Z,1.63
2022-09-28T22:00:47.559Z,1.70
2022-09-28T22:04:39.170Z,1.85
2022-09-28T22:08:25.132Z,1.77
2022-09-28T22:12:18.594Z,2.33
2022-09-28T22:16:05.970Z,2.20
2022-09-28T22:19:48.848Z,2.40
2022-09-28T22:23:31.243Z,1.63
2022-09-28T22:27:14.072Z,2.35
2022-09-28T22:31:01.480Z,2.65
2022-09-28T22:34:59.956Z,2.30
2022-09-28T22:38:42.497Z,1.52
2022-09-28T22:42:24.800Z,1.70
2022-09-28T22:46:35.164Z,1.90
2022-09-28T22:50:18.234Z,3.17
2022-09-28T22:54:01.416Z,2.78
2022-09-28T22:57:47.121Z,2.70
2022-09-28T23:01:44.714Z,2.22
2022-09-28T23:05:27.405Z,2.60
2022-09-28T23:09:09.681Z,2.60
2022-09-28T23:12:55.878Z,2.70
2022-09-28T23:16:47.458Z,2.42
2022-09-28T23:20:34.004Z,2.17
2022-09-28T23:24:18.648Z,2.88
2022-09-28T23:28:04.384Z,2.20
2022-09-28T23:31:51.580Z,1.80
2022-09-28T23:35:38.538Z,1.77
2022-09-28T23:39:34.344Z,1.90
2022-09-28T23:43:16.813Z,2.05
2022-09-28T23:47:03.831Z,2.10
2022-09-28T23:50:49.980Z,1.95
2022-09-28T23:54:32.623Z,2.17
2022-09-28T23:58:19.279Z,1.70
